This is the latest recevied weather packets stored in our database for station/object WD7OO. If no packets are shown the sender has not sent any weather packets the latest 1 day(s).
| Time | Temp. | Humidity | Pressure | Rain* | Wind** | Luminosity | Snow |
|---|---|---|---|---|---|---|---|
| 1778077778 | 10.56° C | 44% | 1014.1 hPa | 0 mm | - | 333 W/m² | - |
| 1778076871 | 10.56° C | 44% | 1014 hPa | 0 mm | - | 293 W/m² | - |
| 1778076266 | 10° C | 49% | 1013.9 hPa | 0 mm | - | 237 W/m² | - |
| 1778075356 | 10° C | 45% | 1013.8 hPa | 0 mm | - | 217 W/m² | - |
| 1778075052 | 10° C | 49% | 1013.7 hPa | 0 mm | - | 208 W/m² | - |
| 1778074446 | 10° C | 46% | 1013.4 hPa | 0 mm | - | 264 W/m² | - |
| 1778073538 | 10.56° C | 51% | 1013.4 hPa | 0 mm | - | 423 W/m² | - |
| 1778071418 | 8.89° C | 59% | 1013.1 hPa | 0 mm | - | 212 W/m² | - |
| 1778071116 | 8.33° C | 63% | 1013.1 hPa | 0 mm | - | 185 W/m² | - |
| 1778070208 | 7.78° C | 68% | 1013.2 hPa | 0 mm | - | 93 W/m² | - |
| 1778069603 | 6.67° C | 70% | 1013 hPa | 0 mm | - | 98 W/m² | - |
| 1778069300 | 6.11° C | 74% | 1013 hPa | 0 mm | - | 84 W/m² | - |
| 1778068998 | 5.56° C | 75% | 1012.8 hPa | 0 mm | - | 78 W/m² | - |
| 1778068695 | 5° C | 80% | 1012.9 hPa | 0 mm | - | 64 W/m² | - |
| 1778068394 | 5° C | 82% | 1012.6 hPa | 0 mm | - | 51 W/m² | - |
| 1778067184 | 3.89° C | 89% | 1012.2 hPa | 0 mm | - | 35 W/m² | - |
| 1778066880 | 3.33° C | 89% | 1012.2 hPa | 0 mm | - | 32 W/m² | - |
| 1778065973 | 2.78° C | 90% | 1011.7 hPa | 0 mm | - | 20 W/m² | - |
| 1778064458 | 3.33° C | 88% | 1011.5 hPa | 0 mm | - | 5 W/m² | - |
| 1778064156 | 3.33° C | 88% | 1011.4 hPa | 0 mm | - | 3 W/m² | - |
| 1778063550 | 3.33° C | 86% | 1011.8 hPa | 0 mm | - | 0 W/m² | - |
| 1778062946 | 3.89° C | 86% | 1011.9 hPa | 0 mm | - | 0 W/m² | - |
| 1778062642 | 3.89° C | 86% | 1011.6 hPa | 0 mm | - | 0 W/m² | - |
| 1778062037 | 3.89° C | 86% | 1011.4 hPa | 0 mm | - | 0 W/m² | - |
| 1778061433 | 3.89° C | 84% | 1011.2 hPa | 0 mm | - | 0 W/m² | - |
* Rain latest hour (hover to see other rain measurements)
** Current wind speed in m/s (hover to see current wind gust speed)